sensor_id;sensor_type;location;lat;lon;timestamp;pressure;altitude;pressure_sealevel;temperature;humidity
6128;BME280;7073;42.672;23.256;2023-05-01T00:01:57;94347.09;;;11.52;89.51
6128;BME280;7073;42.672;23.256;2023-05-01T00:04:25;94359.56;;;11.80;88.21
6128;BME280;7073;42.672;23.256;2023-05-01T00:06:52;94355.31;;;11.97;87.85
6128;BME280;7073;42.672;23.256;2023-05-01T00:09:19;94349.28;;;11.97;87.09
6128;BME280;7073;42.672;23.256;2023-05-01T00:11:45;94336.06;;;11.80;86.19
6128;BME280;7073;42.672;23.256;2023-05-01T00:14:12;94361.44;;;11.91;86.04
6128;BME280;7073;42.672;23.256;2023-05-01T00:16:39;94367.22;;;11.63;87.85
6128;BME280;7073;42.672;23.256;2023-05-01T00:19:05;94374.63;;;11.48;88.68
6128;BME280;7073;42.672;23.256;2023-05-01T00:21:34;94343.06;;;11.20;90.13
6128;BME280;7073;42.672;23.256;2023-05-01T00:24:00;94349.88;;;11.21;91.52
6128;BME280;7073;42.672;23.256;2023-05-01T00:26:27;94343.22;;;11.07;92.21
6128;BME280;7073;42.672;23.256;2023-05-01T00:28:55;94354.94;;;11.34;90.74
6128;BME280;7073;42.672;23.256;2023-05-01T00:31:23;94350.44;;;11.41;90.47
6128;BME280;7073;42.672;23.256;2023-05-01T00:33:50;94357.63;;;11.76;90.34
6128;BME280;7073;42.672;23.256;2023-05-01T00:36:16;94335.41;;;11.55;88.50
6128;BME280;7073;42.672;23.256;2023-05-01T00:38:45;94360.69;;;11.54;88.25
6128;BME280;7073;42.672;23.256;2023-05-01T00:41:12;94368.34;;;11.20;90.02
6128;BME280;7073;42.672;23.256;2023-05-01T00:43:38;94366.25;;;11.10;90.50
6128;BME280;7073;42.672;23.256;2023-05-01T00:46:06;94377.78;;;11.02;93.06
6128;BME280;7073;42.672;23.256;2023-05-01T00:48:34;94373.06;;;11.29;91.99
6128;BME280;7073;42.672;23.256;2023-05-01T00:51:02;94364.78;;;11.14;92.00
6128;BME280;7073;42.672;23.256;2023-05-01T00:53:32;94324.09;;;11.13;91.01
6128;BME280;7073;42.672;23.256;2023-05-01T00:56:00;94381.69;;;11.59;89.81
6128;BME280;7073;42.672;23.256;2023-05-01T00:58:28;94388.06;;;11.82;89.71
6128;BME280;7073;42.672;23.256;2023-05-01T01:00:55;94385.66;;;11.80;88.29
6128;BME280;7073;42.672;23.256;2023-05-01T01:03:22;94389.19;;;11.56;88.42
6128;BME280;7073;42.672;23.256;2023-05-01T01:05:53;94394.53;;;11.61;88.38
6128;BME280;7073;42.672;23.256;2023-05-01T01:08:26;94387.97;;;11.40;89.77
6128;BME280;7073;42.672;23.256;2023-05-01T01:10:59;94385.03;;;11.48;89.96
6128;BME280;7073;42.672;23.256;2023-05-01T01:13:31;94383.84;;;11.51;89.12
6128;BME280;7073;42.672;23.256;2023-05-01T01:16:09;94386.56;;;11.38;90.73
6128;BME280;7073;42.672;23.256;2023-05-01T01:18:42;94383.25;;;11.49;90.10
6128;BME280;7073;42.672;23.256;2023-05-01T01:21:17;94394.34;;;11.26;90.32
6128;BME280;7073;42.672;23.256;2023-05-01T01:24:16;94384.28;;;11.12;92.55
6128;BME280;7073;42.672;23.256;2023-05-01T01:27:32;94391.13;;;10.88;93.57
6128;BME280;7073;42.672;23.256;2023-05-01T01:36:19;94398.09;;;10.76;94.47
6128;BME280;7073;42.672;23.256;2023-05-01T01:38:53;94378.06;;;10.94;94.00
6128;BME280;7073;42.672;23.256;2023-05-01T01:41:28;94409.44;;;11.06;93.12
6128;BME280;7073;42.672;23.256;2023-05-01T01:44:00;94394.13;;;11.10;93.59
6128;BME280;7073;42.672;23.256;2023-05-01T01:46:32;94348.34;;;10.77;93.07
6128;BME280;7073;42.672;23.256;2023-05-01T01:49:05;94397.69;;;11.15;93.05
6128;BME280;7073;42.672;23.256;2023-05-01T01:51:34;94399.84;;;10.82;94.15
6128;BME280;7073;42.672;23.256;2023-05-01T01:54:04;94392.06;;;10.75;95.17
6128;BME280;7073;42.672;23.256;2023-05-01T01:56:32;94392.81;;;10.82;95.19
6128;BME280;7073;42.672;23.256;2023-05-01T01:59:01;94391.94;;;10.88;94.70
6128;BME280;7073;42.672;23.256;2023-05-01T02:01:32;94398.25;;;10.99;94.29
6128;BME280;7073;42.672;23.256;2023-05-01T02:04:00;94391.75;;;11.26;93.94
6128;BME280;7073;42.672;23.256;2023-05-01T02:06:31;94400.28;;;11.33;92.15
6128;BME280;7073;42.672;23.256;2023-05-01T02:09:01;94395.06;;;10.97;93.81
6128;BME280;7073;42.672;23.256;2023-05-01T02:11:30;94390.72;;;10.91;94.26
6128;BME280;7073;42.672;23.256;2023-05-01T02:13:58;94385.13;;;10.44;96.63
6128;BME280;7073;42.672;23.256;2023-05-01T02:16:26;94380.97;;;10.12;99.55
6128;BME280;7073;42.672;23.256;2023-05-01T02:18:54;94383.81;;;10.35;100.00
6128;BME280;7073;42.672;23.256;2023-05-01T02:21:23;94386.81;;;10.57;99.27
6128;BME280;7073;42.672;23.256;2023-05-01T02:23:50;94379.78;;;10.39;98.88
6128;BME280;7073;42.672;23.256;2023-05-01T02:26:21;94380.34;;;10.41;99.92
6128;BME280;7073;42.672;23.256;2023-05-01T02:28:50;94382.97;;;10.41;99.37
6128;BME280;7073;42.672;23.256;2023-05-01T02:31:17;94373.44;;;10.54;99.18
6128;BME280;7073;42.672;23.256;2023-05-01T02:33:44;94383.03;;;10.78;98.26
6128;BME280;7073;42.672;23.256;2023-05-01T02:36:10;94389.13;;;10.90;97.17
6128;BME280;7073;42.672;23.256;2023-05-01T02:38:38;94385.03;;;11.00;95.96
6128;BME280;7073;42.672;23.256;2023-05-01T02:41:05;94391.19;;;11.06;95.16
6128;BME280;7073;42.672;23.256;2023-05-01T02:43:35;94383.78;;;11.21;95.50
6128;BME280;7073;42.672;23.256;2023-05-01T02:46:04;94391.75;;;11.08;95.09
6128;BME280;7073;42.672;23.256;2023-05-01T02:48:35;94396.66;;;10.98;96.01
6128;BME280;7073;42.672;23.256;2023-05-01T02:51:04;94387.81;;;10.99;95.96
6128;BME280;7073;42.672;23.256;2023-05-01T02:53:31;94404.28;;;11.18;95.50
6128;BME280;7073;42.672;23.256;2023-05-01T02:55:59;94401.09;;;11.16;94.93
6128;BME280;7073;42.672;23.256;2023-05-01T02:58:29;94388.22;;;10.60;96.98
6128;BME280;7073;42.672;23.256;2023-05-01T03:00:57;94392.44;;;10.79;97.25
6128;BME280;7073;42.672;23.256;2023-05-01T03:03:24;94378.16;;;10.63;97.09
6128;BME280;7073;42.672;23.256;2023-05-01T03:05:52;94391.09;;;10.52;98.10
6128;BME280;7073;42.672;23.256;2023-05-01T03:08:19;94405.13;;;10.93;96.91
6128;BME280;7073;42.672;23.256;2023-05-01T03:10:45;94398.19;;;11.05;96.07
6128;BME280;7073;42.672;23.256;2023-05-01T03:13:12;94392.88;;;10.94;95.47
6128;BME280;7073;42.672;23.256;2023-05-01T03:15:39;94394.00;;;10.62;96.75
6128;BME280;7073;42.672;23.256;2023-05-01T03:18:07;94395.25;;;10.34;98.87
6128;BME280;7073;42.672;23.256;2023-05-01T03:20:34;94396.09;;;10.53;98.74
6128;BME280;7073;42.672;23.256;2023-05-01T03:23:01;94394.03;;;10.37;99.36
6128;BME280;7073;42.672;23.256;2023-05-01T03:25:28;94394.75;;;10.69;98.85
6128;BME280;7073;42.672;23.256;2023-05-01T03:27:55;94399.59;;;10.65;97.50
6128;BME280;7073;42.672;23.256;2023-05-01T03:30:22;94399.16;;;10.68;97.51
6128;BME280;7073;42.672;23.256;2023-05-01T03:32:49;94405.75;;;10.71;97.44
6128;BME280;7073;42.672;23.256;2023-05-01T03:35:18;94400.81;;;10.63;98.31
6128;BME280;7073;42.672;23.256;2023-05-01T03:37:45;94398.06;;;10.58;98.20
6128;BME280;7073;42.672;23.256;2023-05-01T03:40:12;94404.16;;;10.88;97.76
6128;BME280;7073;42.672;23.256;2023-05-01T03:42:38;94414.63;;;11.06;96.57
6128;BME280;7073;42.672;23.256;2023-05-01T03:45:06;94416.59;;;11.11;95.57
6128;BME280;7073;42.672;23.256;2023-05-01T03:47:33;94424.19;;;11.12;95.57
6128;BME280;7073;42.672;23.256;2023-05-01T03:50:00;94415.50;;;11.18;95.46
6128;BME280;7073;42.672;23.256;2023-05-01T03:52:28;94438.03;;;11.31;93.90
6128;BME280;7073;42.672;23.256;2023-05-01T03:54:55;94431.72;;;11.38;93.64
6128;BME280;7073;42.672;23.256;2023-05-01T03:57:22;94431.72;;;11.38;93.64
6128;BME280;7073;42.672;23.256;2023-05-01T03:59:49;94431.72;;;11.38;93.64
6128;BME280;7073;42.672;23.256;2023-05-01T04:02:15;66884.56;;;-143.30;100.00
6128;BME280;7073;42.672;23.256;2023-05-01T04:04:42;66884.56;;;-143.30;100.00
6128;BME280;7073;42.672;23.256;2023-05-01T04:07:09;66884.56;;;-143.30;100.00
6128;BME280;7073;42.672;23.256;2023-05-01T04:09:38;66884.56;;;-143.30;100.00
6128;BME280;7073;42.672;23.256;2023-05-01T04:12:04;66884.56;;;-143.30;100.00
6128;BME280;7073;42.672;23.256;2023-05-01T04:14:31;66884.56;;;-143.30;100.00
6128;BME280;7073;42.672;23.256;2023-05-01T04:16:58;66884.56;;;-143.30;100.00
6128;BME280;7073;42.672;23.256;2023-05-01T04:19:25;66884.56;;;-143.30;100.00
6128;BME280;7073;42.672;23.256;2023-05-01T04:21:51;66884.56;;;-143.30;100.00
6128;BME280;7073;42.672;23.256;2023-05-01T04:24:18;66884.56;;;-143.30;100.00
6128;BME280;7073;42.672;23.256;2023-05-01T04:26:46;66884.56;;;-143.30;100.00
6128;BME280;7073;42.672;23.256;2023-05-01T04:29:14;66884.56;;;-143.30;100.00
6128;BME280;7073;42.672;23.256;2023-05-01T04:31:43;66884.56;;;-143.30;100.00
6128;BME280;7073;42.672;23.256;2023-05-01T04:34:10;66884.56;;;-143.30;100.00
6128;BME280;7073;42.672;23.256;2023-05-01T04:36:37;66884.56;;;-143.30;100.00
6128;BME280;7073;42.672;23.256;2023-05-01T04:39:03;66884.56;;;-143.30;100.00
6128;BME280;7073;42.672;23.256;2023-05-01T04:41:30;66884.56;;;-143.30;100.00
6128;BME280;7073;42.672;23.256;2023-05-01T04:43:58;66884.56;;;-143.30;100.00
6128;BME280;7073;42.672;23.256;2023-05-01T04:46:25;66884.56;;;-143.30;100.00
6128;BME280;7073;42.672;23.256;2023-05-01T04:48:52;66884.56;;;-143.30;100.00
6128;BME280;7073;42.672;23.256;2023-05-01T04:51:19;66884.56;;;-143.30;100.00
6128;BME280;7073;42.672;23.256;2023-05-01T04:53:46;66884.56;;;-143.30;100.00
6128;BME280;7073;42.672;23.256;2023-05-01T04:56:12;66884.56;;;-143.30;100.00
6128;BME280;7073;42.672;23.256;2023-05-01T04:58:39;66884.56;;;-143.30;100.00
6128;BME280;7073;42.672;23.256;2023-05-01T05:01:07;66884.56;;;-143.30;100.00
6128;BME280;7073;42.672;23.256;2023-05-01T05:03:34;66884.56;;;-143.30;100.00
6128;BME280;7073;42.672;23.256;2023-05-01T05:06:01;66884.56;;;-143.30;100.00
6128;BME280;7073;42.672;23.256;2023-05-01T05:08:28;66884.56;;;-143.30;100.00
6128;BME280;7073;42.672;23.256;2023-05-01T05:10:56;66884.56;;;-143.30;100.00
6128;BME280;7073;42.672;23.256;2023-05-01T05:13:24;66884.56;;;-143.30;100.00
6128;BME280;7073;42.672;23.256;2023-05-01T05:15:51;66884.56;;;-143.30;100.00
6128;BME280;7073;42.672;23.256;2023-05-01T05:18:19;66884.56;;;-143.30;100.00
6128;BME280;7073;42.672;23.256;2023-05-01T05:20:45;66884.56;;;-143.30;100.00
6128;BME280;7073;42.672;23.256;2023-05-01T05:23:12;66884.56;;;-143.30;100.00
6128;BME280;7073;42.672;23.256;2023-05-01T05:25:39;66884.56;;;-143.30;100.00
6128;BME280;7073;42.672;23.256;2023-05-01T05:28:06;66884.56;;;-143.30;100.00
6128;BME280;7073;42.672;23.256;2023-05-01T05:30:32;66884.56;;;-143.30;100.00
6128;BME280;7073;42.672;23.256;2023-05-01T05:32:59;66884.56;;;-143.30;100.00
6128;BME280;7073;42.672;23.256;2023-05-01T05:35:27;66884.56;;;-143.30;100.00
6128;BME280;7073;42.672;23.256;2023-05-01T05:37:54;66884.56;;;-143.30;100.00
6128;BME280;7073;42.672;23.256;2023-05-01T05:40:21;66884.56;;;-143.30;100.00
6128;BME280;7073;42.672;23.256;2023-05-01T05:42:47;66884.56;;;-143.30;100.00
6128;BME280;7073;42.672;23.256;2023-05-01T05:45:15;66884.56;;;-143.30;100.00
6128;BME280;7073;42.672;23.256;2023-05-01T05:47:42;66884.56;;;-143.30;100.00
6128;BME280;7073;42.672;23.256;2023-05-01T05:50:09;66884.56;;;-143.30;100.00
6128;BME280;7073;42.672;23.256;2023-05-01T05:52:37;66884.56;;;-143.30;100.00
6128;BME280;7073;42.672;23.256;2023-05-01T05:55:05;66884.56;;;-143.30;100.00
6128;BME280;7073;42.672;23.256;2023-05-01T05:57:32;66884.56;;;-143.30;100.00
6128;BME280;7073;42.672;23.256;2023-05-01T06:00:32;66884.56;;;-143.30;100.00
6128;BME280;7073;42.672;23.256;2023-05-01T06:03:25;94431.72;;;11.38;93.64
6128;BME280;7073;42.672;23.256;2023-05-01T06:06:01;94455.06;;;15.09;74.16
6128;BME280;7073;42.672;23.256;2023-05-01T06:08:46;94514.47;;;16.09;71.37
6128;BME280;7073;42.672;23.256;2023-05-01T06:14:29;94519.75;;;16.09;71.71
6128;BME280;7073;42.672;23.256;2023-05-01T06:17:05;66884.56;;;-143.30;100.00
6128;BME280;7073;42.672;23.256;2023-05-01T06:19:47;66884.56;;;-143.30;100.00
6128;BME280;7073;42.672;23.256;2023-05-01T06:22:23;66884.56;;;-143.30;100.00
6128;BME280;7073;42.672;23.256;2023-05-01T06:24:57;66884.56;;;-143.30;100.00
6128;BME280;7073;42.672;23.256;2023-05-01T06:27:49;94519.75;;;16.09;71.71
6128;BME280;7073;42.672;23.256;2023-05-01T06:34:25;94519.75;;;16.09;71.71
6128;BME280;7073;42.672;23.256;2023-05-01T06:37:48;54424.19;;;16.09;71.71
6128;BME280;7073;42.672;23.256;2023-05-01T06:41:00;66884.56;;;-143.30;100.00
6128;BME280;7073;42.672;23.256;2023-05-01T06:43:53;66884.56;;;-143.30;100.00
6128;BME280;7073;42.672;23.256;2023-05-01T06:46:40;66884.56;;;-143.30;100.00
6128;BME280;7073;42.672;23.256;2023-05-01T06:49:06;66884.56;;;-143.30;100.00
6128;BME280;7073;42.672;23.256;2023-05-01T06:51:33;66884.56;;;-143.30;100.00
6128;BME280;7073;42.672;23.256;2023-05-01T06:56:28;66884.56;;;-143.30;100.00
6128;BME280;7073;42.672;23.256;2023-05-01T06:58:56;94519.75;;;16.09;71.71
6128;BME280;7073;42.672;23.256;2023-05-01T07:01:23;94519.75;;;16.09;71.71
6128;BME280;7073;42.672;23.256;2023-05-01T07:03:50;94540.97;;;17.31;64.49
6128;BME280;7073;42.672;23.256;2023-05-01T07:06:17;94539.94;;;17.63;62.82
6128;BME280;7073;42.672;23.256;2023-05-01T07:08:43;94539.94;;;17.63;62.82
6128;BME280;7073;42.672;23.256;2023-05-01T07:11:10;94549.56;;;17.90;59.87
6128;BME280;7073;42.672;23.256;2023-05-01T07:13:38;94549.56;;;17.90;59.87
6128;BME280;7073;42.672;23.256;2023-05-01T07:16:06;94528.91;;;17.71;61.76
6128;BME280;7073;42.672;23.256;2023-05-01T07:18:33;94548.16;;;17.40;63.40
6128;BME280;7073;42.672;23.256;2023-05-01T07:21:00;94550.97;;;18.07;61.36
6128;BME280;7073;42.672;23.256;2023-05-01T07:23:27;94551.34;;;18.26;59.01
6128;BME280;7073;42.672;23.256;2023-05-01T07:25:53;94551.81;;;18.18;58.78
6128;BME280;7073;42.672;23.256;2023-05-01T07:28:21;94554.66;;;18.63;57.10
6128;BME280;7073;42.672;23.256;2023-05-01T07:30:49;94561.25;;;18.61;55.97
6128;BME280;7073;42.672;23.256;2023-05-01T07:33:16;94553.31;;;18.51;56.34
6128;BME280;7073;42.672;23.256;2023-05-01T07:35:42;94541.00;;;18.97;55.46
6128;BME280;7073;42.672;23.256;2023-05-01T07:38:09;94546.31;;;19.02;55.01
6128;BME280;7073;42.672;23.256;2023-05-01T07:40:36;94549.38;;;18.63;56.29
6128;BME280;7073;42.672;23.256;2023-05-01T07:43:03;94540.44;;;18.69;56.15
6128;BME280;7073;42.672;23.256;2023-05-01T07:45:31;94565.59;;;19.07;55.09
6128;BME280;7073;42.672;23.256;2023-05-01T07:48:00;94553.72;;;19.15;54.56
6128;BME280;7073;42.672;23.256;2023-05-01T07:50:27;94554.78;;;19.24;53.94
6128;BME280;7073;42.672;23.256;2023-05-01T07:52:54;94568.56;;;19.56;52.84
6128;BME280;7073;42.672;23.256;2023-05-01T07:55:21;94558.25;;;19.60;51.49
6128;BME280;7073;42.672;23.256;2023-05-01T07:57:48;94549.25;;;19.61;51.99
6128;BME280;7073;42.672;23.256;2023-05-01T08:00:16;94553.25;;;19.43;51.51
6128;BME280;7073;42.672;23.256;2023-05-01T08:02:43;94558.75;;;19.21;53.34
6128;BME280;7073;42.672;23.256;2023-05-01T08:05:13;94551.38;;;19.69;51.91
6128;BME280;7073;42.672;23.256;2023-05-01T08:07:40;94550.00;;;19.81;52.70
6128;BME280;7073;42.672;23.256;2023-05-01T08:10:08;94563.66;;;20.34;51.39
6128;BME280;7073;42.672;23.256;2023-05-01T08:12:34;94558.41;;;20.19;49.90
6128;BME280;7073;42.672;23.256;2023-05-01T08:15:01;94556.88;;;19.92;49.96
6128;BME280;7073;42.672;23.256;2023-05-01T08:17:28;94561.56;;;20.36;49.38
6128;BME280;7073;42.672;23.256;2023-05-01T08:19:55;94563.78;;;20.72;48.20
6128;BME280;7073;42.672;23.256;2023-05-01T08:22:23;94560.97;;;20.49;48.38
6128;BME280;7073;42.672;23.256;2023-05-01T08:24:50;94564.97;;;20.36;48.20
6128;BME280;7073;42.672;23.256;2023-05-01T08:27:17;94564.97;;;20.36;48.20
6128;BME280;7073;42.672;23.256;2023-05-01T08:29:44;94564.97;;;20.36;48.20
6128;BME280;7073;42.672;23.256;2023-05-01T08:32:11;66884.56;;;-143.30;100.00
6128;BME280;7073;42.672;23.256;2023-05-01T08:34:37;94564.97;;;20.36;48.20
6128;BME280;7073;42.672;23.256;2023-05-01T08:37:04;94564.97;;;20.36;48.20
6128;BME280;7073;42.672;23.256;2023-05-01T08:39:33;66884.56;;;-143.30;100.00
6128;BME280;7073;42.672;23.256;2023-05-01T08:42:00;94564.97;;;-143.30;48.20
6128;BME280;7073;42.672;23.256;2023-05-01T08:44:27;66884.56;;;-143.30;100.00
6128;BME280;7073;42.672;23.256;2023-05-01T08:47:05;120820.13;;;-143.30;48.20
6128;BME280;7073;42.672;23.256;2023-05-01T08:49:35;94555.38;;;21.77;42.66
6128;BME280;7073;42.672;23.256;2023-05-01T08:52:05;94555.38;;;21.77;42.66
6128;BME280;7073;42.672;23.256;2023-05-01T08:54:36;94544.16;;;22.37;43.29
6128;BME280;7073;42.672;23.256;2023-05-01T08:57:05;94557.66;;;21.93;44.38
6128;BME280;7073;42.672;23.256;2023-05-01T08:59:34;94553.34;;;21.35;43.00
6128;BME280;7073;42.672;23.256;2023-05-01T09:02:03;94546.44;;;21.68;43.74
6128;BME280;7073;42.672;23.256;2023-05-01T09:04:31;94550.09;;;22.06;42.44
6128;BME280;7073;42.672;23.256;2023-05-01T09:06:58;94551.56;;;22.40;40.56
6128;BME280;7073;42.672;23.256;2023-05-01T09:09:27;94552.88;;;22.67;40.83
6128;BME280;7073;42.672;23.256;2023-05-01T09:11:59;94552.88;;;22.67;40.83
6128;BME280;7073;42.672;23.256;2023-05-01T09:14:29;94513.25;;;22.70;40.61
6128;BME280;7073;42.672;23.256;2023-05-01T09:16:56;94536.56;;;22.49;41.73
6128;BME280;7073;42.672;23.256;2023-05-01T09:19:24;94546.72;;;23.27;40.38
6128;BME280;7073;42.672;23.256;2023-05-01T09:21:52;94530.41;;;22.78;41.56
6128;BME280;7073;42.672;23.256;2023-05-01T09:24:20;94528.09;;;23.08;40.25
6128;BME280;7073;42.672;23.256;2023-05-01T09:26:48;94529.03;;;23.36;40.18
6128;BME280;7073;42.672;23.256;2023-05-01T09:29:36;94558.94;;;23.28;39.83
6128;BME280;7073;42.672;23.256;2023-05-01T09:32:13;94523.94;;;23.21;40.85
6128;BME280;7073;42.672;23.256;2023-05-01T09:34:40;94546.91;;;23.82;38.33
6128;BME280;7073;42.672;23.256;2023-05-01T09:37:10;94543.31;;;23.59;39.04
6128;BME280;7073;42.672;23.256;2023-05-01T09:39:38;94536.97;;;23.55;37.77
6128;BME280;7073;42.672;23.256;2023-05-01T09:42:05;94550.06;;;24.29;36.16
6128;BME280;7073;42.672;23.256;2023-05-01T09:44:40;94518.56;;;24.04;36.24
6128;BME280;7073;42.672;23.256;2023-05-01T09:47:09;94543.41;;;23.35;37.94
6128;BME280;7073;42.672;23.256;2023-05-01T09:49:44;94536.44;;;23.71;38.79
6128;BME280;7073;42.672;23.256;2023-05-01T09:52:12;94520.88;;;24.38;35.60
6128;BME280;7073;42.672;23.256;2023-05-01T09:54:39;94512.44;;;24.04;35.95
6128;BME280;7073;42.672;23.256;2023-05-01T09:57:06;94535.75;;;24.80;34.80
6128;BME280;7073;42.672;23.256;2023-05-01T09:59:34;94535.75;;;24.80;33.88
6128;BME280;7073;42.672;23.256;2023-05-01T10:02:02;94530.53;;;24.61;35.06
6128;BME280;7073;42.672;23.256;2023-05-01T10:04:29;94525.31;;;24.29;35.52
6128;BME280;7073;42.672;23.256;2023-05-01T10:06:56;94527.41;;;25.09;34.08
6128;BME280;7073;42.672;23.256;2023-05-01T10:09:27;94474.56;;;24.48;34.67
6128;BME280;7073;42.672;23.256;2023-05-01T10:11:55;94495.41;;;24.32;37.49
6128;BME280;7073;42.672;23.256;2023-05-01T10:14:23;94517.19;;;24.61;38.81
6128;BME280;7073;42.672;23.256;2023-05-01T10:16:52;94513.81;;;25.19;38.24
6128;BME280;7073;42.672;23.256;2023-05-01T10:19:22;94502.63;;;24.94;36.27
6128;BME280;7073;42.672;23.256;2023-05-01T10:21:49;94493.72;;;25.13;36.60
6128;BME280;7073;42.672;23.256;2023-05-01T10:24:17;94498.66;;;24.56;37.22
6128;BME280;7073;42.672;23.256;2023-05-01T10:26:47;94493.25;;;24.97;35.79
6128;BME280;7073;42.672;23.256;2023-05-01T10:29:14;94485.16;;;25.02;36.66
6128;BME280;7073;42.672;23.256;2023-05-01T10:31:41;94520.09;;;24.38;35.90
6128;BME280;7073;42.672;23.256;2023-05-01T10:34:09;94492.09;;;24.89;36.49
6128;BME280;7073;42.672;23.256;2023-05-01T10:36:42;94517.28;;;25.19;37.00
6128;BME280;7073;42.672;23.256;2023-05-01T10:39:28;94511.72;;;25.29;35.90
6128;BME280;7073;42.672;23.256;2023-05-01T10:42:02;94515.53;;;24.65;37.30
6128;BME280;7073;42.672;23.256;2023-05-01T10:44:30;94509.97;;;24.89;37.20
6128;BME280;7073;42.672;23.256;2023-05-01T10:46:59;94491.25;;;25.03;37.94
6128;BME280;7073;42.672;23.256;2023-05-01T10:50:02;94503.19;;;24.01;38.85
6128;BME280;7073;42.672;23.256;2023-05-01T10:55:36;94500.31;;;23.01;42.93
6128;BME280;7073;42.672;23.256;2023-05-01T10:58:03;94503.69;;;22.88;41.40
6128;BME280;7073;42.672;23.256;2023-05-01T11:00:30;94492.38;;;22.59;40.80
6128;BME280;7073;42.672;23.256;2023-05-01T11:03:36;94501.38;;;22.20;42.37
6128;BME280;7073;42.672;23.256;2023-05-01T11:06:06;94510.53;;;22.94;40.68
6128;BME280;7073;42.672;23.256;2023-05-01T11:08:35;94469.56;;;22.76;39.74
6128;BME280;7073;42.672;23.256;2023-05-01T11:16:40;94517.59;;;22.37;40.77
6128;BME280;7073;42.672;23.256;2023-05-01T11:19:08;94499.72;;;23.41;39.21
6128;BME280;7073;42.672;23.256;2023-05-01T11:21:37;94523.03;;;24.50;37.77
6128;BME280;7073;42.672;23.256;2023-05-01T11:24:06;94486.00;;;24.89;35.45
6128;BME280;7073;42.672;23.256;2023-05-01T11:26:36;94511.16;;;25.19;35.12
6128;BME280;7073;42.672;23.256;2023-05-01T11:29:04;94513.63;;;25.51;36.76
6128;BME280;7073;42.672;23.256;2023-05-01T11:31:31;94459.34;;;25.33;35.75
6128;BME280;7073;42.672;23.256;2023-05-01T11:33:58;94513.81;;;24.97;35.89
6128;BME280;7073;42.672;23.256;2023-05-01T11:36:26;94510.47;;;24.91;35.48
6128;BME280;7073;42.672;23.256;2023-05-01T11:38:54;94515.19;;;24.94;35.03
6128;BME280;7073;42.672;23.256;2023-05-01T11:41:25;94512.03;;;25.72;34.70
6128;BME280;7073;42.672;23.256;2023-05-01T11:43:53;94508.44;;;26.07;34.38
6128;BME280;7073;42.672;23.256;2023-05-01T11:46:23;94508.50;;;26.64;33.47
6128;BME280;7073;42.672;23.256;2023-05-01T11:48:52;94463.13;;;25.94;32.77
6128;BME280;7073;42.672;23.256;2023-05-01T11:51:19;94520.75;;;25.42;34.79
6128;BME280;7073;42.672;23.256;2023-05-01T11:53:58;94504.84;;;25.37;35.11
6128;BME280;7073;42.672;23.256;2023-05-01T11:56:27;94499.09;;;24.99;36.05
6128;BME280;7073;42.672;23.256;2023-05-01T11:58:54;94488.88;;;24.65;36.81
6128;BME280;7073;42.672;23.256;2023-05-01T12:01:32;94476.84;;;23.72;36.88
6128;BME280;7073;42.672;23.256;2023-05-01T12:03:59;94488.59;;;23.99;36.70
6128;BME280;7073;42.672;23.256;2023-05-01T12:06:34;94486.56;;;23.63;36.79
6128;BME280;7073;42.672;23.256;2023-05-01T12:09:05;94493.75;;;23.63;37.54
6128;BME280;7073;42.672;23.256;2023-05-01T12:11:34;94501.25;;;24.20;36.50
6128;BME280;7073;42.672;23.256;2023-05-01T12:14:01;94474.69;;;23.88;37.49
6128;BME280;7073;42.672;23.256;2023-05-01T12:16:29;94501.47;;;22.95;38.80
6128;BME280;7073;42.672;23.256;2023-05-01T12:18:57;94484.41;;;22.16;39.75
6128;BME280;7073;42.672;23.256;2023-05-01T12:21:23;94495.03;;;22.16;40.32
6128;BME280;7073;42.672;23.256;2023-05-01T12:23:52;94482.44;;;22.03;40.54
6128;BME280;7073;42.672;23.256;2023-05-01T12:26:21;94482.88;;;22.52;38.91
6128;BME280;7073;42.672;23.256;2023-05-01T12:28:57;94483.16;;;22.75;37.95
6128;BME280;7073;42.672;23.256;2023-05-01T12:31:25;94497.97;;;21.91;39.37
6128;BME280;7073;42.672;23.256;2023-05-01T12:33:53;94481.91;;;21.20;40.12
6128;BME280;7073;42.672;23.256;2023-05-01T12:36:21;94493.09;;;21.46;39.49
6128;BME280;7073;42.672;23.256;2023-05-01T12:38:56;94500.63;;;21.28;39.68
6128;BME280;7073;42.672;23.256;2023-05-01T12:41:32;94504.75;;;21.11;39.11
6128;BME280;7073;42.672;23.256;2023-05-01T12:44:00;94484.13;;;21.03;38.74
6128;BME280;7073;42.672;23.256;2023-05-01T12:46:27;94490.13;;;21.18;38.91
6128;BME280;7073;42.672;23.256;2023-05-01T12:48:54;94481.88;;;21.54;37.94
6128;BME280;7073;42.672;23.256;2023-05-01T12:51:22;94491.94;;;21.57;38.20
6128;BME280;7073;42.672;23.256;2023-05-01T12:53:52;94498.69;;;22.68;36.36
6128;BME280;7073;42.672;23.256;2023-05-01T12:56:22;94491.59;;;23.33;35.48
6128;BME280;7073;42.672;23.256;2023-05-01T12:58:52;94494.38;;;23.87;35.08
6128;BME280;7073;42.672;23.256;2023-05-01T13:01:25;94469.16;;;22.69;35.91
6128;BME280;7073;42.672;23.256;2023-05-01T13:03:52;94489.03;;;23.09;35.00
6128;BME280;7073;42.672;23.256;2023-05-01T13:06:30;94519.25;;;23.13;35.62
6128;BME280;7073;42.672;23.256;2023-05-01T13:09:06;94479.81;;;23.52;34.46
6128;BME280;7073;42.672;23.256;2023-05-01T13:11:35;94502.38;;;24.01;33.08
6128;BME280;7073;42.672;23.256;2023-05-01T13:14:06;94506.97;;;23.68;34.17
6128;BME280;7073;42.672;23.256;2023-05-01T13:16:43;94509.47;;;23.27;34.27
6128;BME280;7073;42.672;23.256;2023-05-01T13:19:10;94480.63;;;23.53;33.61
6128;BME280;7073;42.672;23.256;2023-05-01T13:21:45;94477.56;;;22.52;34.79
6128;BME280;7073;42.672;23.256;2023-05-01T13:24:12;94512.75;;;23.56;35.10
6128;BME280;7073;42.672;23.256;2023-05-01T13:26:39;94507.94;;;24.45;33.03
6128;BME280;7073;42.672;23.256;2023-05-01T13:29:12;94511.72;;;24.30;33.71
6128;BME280;7073;42.672;23.256;2023-05-01T13:31:43;94521.75;;;24.47;34.03
6128;BME280;7073;42.672;23.256;2023-05-01T13:34:11;94516.88;;;24.76;32.51
6128;BME280;7073;42.672;23.256;2023-05-01T13:36:43;94513.16;;;24.50;33.45
6128;BME280;7073;42.672;23.256;2023-05-01T13:39:17;94521.59;;;25.07;33.07
6128;BME280;7073;42.672;23.256;2023-05-01T13:41:44;94516.53;;;25.05;33.80
6128;BME280;7073;42.672;23.256;2023-05-01T13:44:12;94508.34;;;24.52;35.93